Terminal Aerodrome Forecast
Issued by NWS

Home | Current Version | Previous Version | Text Only | Print | Product List | Glossary On
Versions: 1 2 3 4 5 6 7 8 9 10 11 12 13 14 15
593
FTUS44 KEPZ 270526
TAFTCS
TAF
KTCS 270526Z 2706/2806 26008KT P6SM SCT130 SCT250
     FM271800 19010G18KT P6SM FEW100 SCT250
     FM272000 21017G27KT P6SM FEW100 SCT250
     FM280300 28008KT P6SM SCT250=

USA.gov is the U.S. government's official web portal to all federal, state and local government web resources and services.